sensor_id;sensor_type;location;lat;lon;timestamp;P1;durP1;ratioP1;P2;durP2;ratioP2
53642;SDS011;39546;45.534;12.048;2022-09-29T00:01:04;7.00;;;3.28;;
53642;SDS011;39546;45.534;12.048;2022-09-29T00:07:06;5.97;;;3.25;;
53642;SDS011;39546;45.534;12.048;2022-09-29T00:13:13;3.22;;;2.67;;
53642;SDS011;39546;45.534;12.048;2022-09-29T00:19:28;3.83;;;2.85;;
53642;SDS011;39546;45.534;12.048;2022-09-29T00:25:57;4.45;;;3.25;;
53642;SDS011;39546;45.534;12.048;2022-09-29T00:32:00;5.05;;;3.15;;
53642;SDS011;39546;45.534;12.048;2022-09-29T00:38:02;22.98;;;3.60;;
53642;SDS011;39546;45.534;12.048;2022-09-29T00:44:06;5.28;;;3.22;;
53642;SDS011;39546;45.534;12.048;2022-09-29T00:50:33;4.03;;;3.03;;
53642;SDS011;39546;45.534;12.048;2022-09-29T00:56:44;4.18;;;2.70;;
53642;SDS011;39546;45.534;12.048;2022-09-29T01:02:57;7.28;;;3.05;;
53642;SDS011;39546;45.534;12.048;2022-09-29T01:09:03;4.85;;;2.97;;
53642;SDS011;39546;45.534;12.048;2022-09-29T01:15:08;2.90;;;2.17;;
53642;SDS011;39546;45.534;12.048;2022-09-29T01:33:57;3.90;;;3.15;;
53642;SDS011;39546;45.534;12.048;2022-09-29T01:40:24;3.65;;;2.42;;
53642;SDS011;39546;45.534;12.048;2022-09-29T01:46:55;7.32;;;2.72;;
53642;SDS011;39546;45.534;12.048;2022-09-29T01:53:14;3.45;;;2.80;;
53642;SDS011;39546;45.534;12.048;2022-09-29T02:05:56;3.35;;;2.30;;
53642;SDS011;39546;45.534;12.048;2022-09-29T02:18:25;2.62;;;1.50;;
53642;SDS011;39546;45.534;12.048;2022-09-29T02:30:44;2.97;;;2.30;;
53642;SDS011;39546;45.534;12.048;2022-09-29T03:02:28;3.62;;;2.35;;
53642;SDS011;39546;45.534;12.048;2022-09-29T03:08:30;4.47;;;2.83;;
53642;SDS011;39546;45.534;12.048;2022-09-29T03:14:33;5.60;;;2.40;;
53642;SDS011;39546;45.534;12.048;2022-09-29T03:20:35;2.95;;;2.00;;
53642;SDS011;39546;45.534;12.048;2022-09-29T03:26:37;4.28;;;2.60;;
53642;SDS011;39546;45.534;12.048;2022-09-29T03:32:39;4.57;;;2.60;;
53642;SDS011;39546;45.534;12.048;2022-09-29T03:38:42;3.45;;;2.53;;
53642;SDS011;39546;45.534;12.048;2022-09-29T03:44:47;3.35;;;1.83;;
53642;SDS011;39546;45.534;12.048;2022-09-29T03:50:49;2.50;;;1.98;;
53642;SDS011;39546;45.534;12.048;2022-09-29T03:56:52;2.80;;;2.03;;
53642;SDS011;39546;45.534;12.048;2022-09-29T04:02:55;2.35;;;1.92;;
53642;SDS011;39546;45.534;12.048;2022-09-29T04:08:57;5.57;;;2.25;;
53642;SDS011;39546;45.534;12.048;2022-09-29T04:14:59;2.35;;;1.67;;
53642;SDS011;39546;45.534;12.048;2022-09-29T04:21:05;6.53;;;3.37;;
53642;SDS011;39546;45.534;12.048;2022-09-29T04:27:08;6.62;;;2.55;;
53642;SDS011;39546;45.534;12.048;2022-09-29T04:33:11;5.22;;;1.70;;
53642;SDS011;39546;45.534;12.048;2022-09-29T04:39:13;2.30;;;1.83;;
53642;SDS011;39546;45.534;12.048;2022-09-29T04:45:15;2.67;;;1.75;;
53642;SDS011;39546;45.534;12.048;2022-09-29T04:51:17;2.87;;;2.20;;
53642;SDS011;39546;45.534;12.048;2022-09-29T04:57:19;2.62;;;1.70;;
53642;SDS011;39546;45.534;12.048;2022-09-29T05:03:21;2.10;;;1.17;;
53642;SDS011;39546;45.534;12.048;2022-09-29T05:09:24;3.22;;;2.10;;
53642;SDS011;39546;45.534;12.048;2022-09-29T05:15:26;3.83;;;1.58;;
53642;SDS011;39546;45.534;12.048;2022-09-29T05:21:28;1.83;;;1.62;;
53642;SDS011;39546;45.534;12.048;2022-09-29T05:27:30;1.75;;;1.58;;
53642;SDS011;39546;45.534;12.048;2022-09-29T05:33:33;3.67;;;2.15;;
53642;SDS011;39546;45.534;12.048;2022-09-29T05:39:36;3.20;;;2.30;;
53642;SDS011;39546;45.534;12.048;2022-09-29T05:45:40;3.90;;;2.22;;
53642;SDS011;39546;45.534;12.048;2022-09-29T05:51:42;4.55;;;3.33;;
53642;SDS011;39546;45.534;12.048;2022-09-29T05:57:48;6.15;;;3.08;;
53642;SDS011;39546;45.534;12.048;2022-09-29T06:03:52;6.10;;;3.05;;
53642;SDS011;39546;45.534;12.048;2022-09-29T06:09:55;2.47;;;2.17;;
53642;SDS011;39546;45.534;12.048;2022-09-29T06:15:58;4.65;;;2.97;;
53642;SDS011;39546;45.534;12.048;2022-09-29T06:22:01;6.40;;;2.22;;
53642;SDS011;39546;45.534;12.048;2022-09-29T06:28:03;4.47;;;3.08;;
53642;SDS011;39546;45.534;12.048;2022-09-29T06:34:08;4.87;;;3.10;;
53642;SDS011;39546;45.534;12.048;2022-09-29T06:40:11;5.15;;;2.10;;
53642;SDS011;39546;45.534;12.048;2022-09-29T06:46:13;3.72;;;2.10;;
53642;SDS011;39546;45.534;12.048;2022-09-29T06:52:16;3.60;;;2.55;;
53642;SDS011;39546;45.534;12.048;2022-09-29T06:58:18;12.48;;;3.12;;
53642;SDS011;39546;45.534;12.048;2022-09-29T07:04:30;4.22;;;2.50;;
53642;SDS011;39546;45.534;12.048;2022-09-29T07:10:32;6.37;;;2.53;;
53642;SDS011;39546;45.534;12.048;2022-09-29T07:16:35;6.95;;;3.22;;
53642;SDS011;39546;45.534;12.048;2022-09-29T07:22:37;4.10;;;2.90;;
53642;SDS011;39546;45.534;12.048;2022-09-29T07:28:39;5.32;;;2.80;;
53642;SDS011;39546;45.534;12.048;2022-09-29T07:34:51;3.47;;;2.30;;
53642;SDS011;39546;45.534;12.048;2022-09-29T07:40:53;7.93;;;2.83;;
53642;SDS011;39546;45.534;12.048;2022-09-29T07:46:55;4.15;;;2.00;;
53642;SDS011;39546;45.534;12.048;2022-09-29T07:52:57;3.78;;;2.20;;
53642;SDS011;39546;45.534;12.048;2022-09-29T07:59:00;5.82;;;2.70;;
53642;SDS011;39546;45.534;12.048;2022-09-29T08:05:03;4.45;;;2.45;;
53642;SDS011;39546;45.534;12.048;2022-09-29T08:11:07;2.72;;;1.80;;
53642;SDS011;39546;45.534;12.048;2022-09-29T08:17:30;3.05;;;1.73;;
53642;SDS011;39546;45.534;12.048;2022-09-29T08:24:20;7.55;;;1.90;;
53642;SDS011;39546;45.534;12.048;2022-09-29T08:30:22;1.67;;;1.40;;
53642;SDS011;39546;45.534;12.048;2022-09-29T08:36:24;3.87;;;1.73;;
53642;SDS011;39546;45.534;12.048;2022-09-29T08:42:29;6.15;;;2.15;;
53642;SDS011;39546;45.534;12.048;2022-09-29T08:48:52;4.35;;;2.47;;
53642;SDS011;39546;45.534;12.048;2022-09-29T08:55:01;3.78;;;2.50;;
53642;SDS011;39546;45.534;12.048;2022-09-29T09:07:44;2.97;;;1.80;;
53642;SDS011;39546;45.534;12.048;2022-09-29T09:26:40;3.17;;;2.22;;
53642;SDS011;39546;45.534;12.048;2022-09-29T09:32:46;4.17;;;3.07;;
53642;SDS011;39546;45.534;12.048;2022-09-29T09:45:31;4.45;;;2.75;;
53642;SDS011;39546;45.534;12.048;2022-09-29T09:58:09;5.78;;;2.78;;
53642;SDS011;39546;45.534;12.048;2022-09-29T10:04:29;7.22;;;4.12;;
53642;SDS011;39546;45.534;12.048;2022-09-29T10:10:32;7.22;;;3.92;;
53642;SDS011;39546;45.534;12.048;2022-09-29T10:16:36;7.45;;;3.78;;
53642;SDS011;39546;45.534;12.048;2022-09-29T10:22:46;3.83;;;2.60;;
53642;SDS011;39546;45.534;12.048;2022-09-29T10:28:53;5.00;;;2.72;;
53642;SDS011;39546;45.534;12.048;2022-09-29T10:35:03;2.80;;;1.95;;
53642;SDS011;39546;45.534;12.048;2022-09-29T10:41:18;4.82;;;2.85;;
53642;SDS011;39546;45.534;12.048;2022-09-29T10:47:21;4.15;;;2.47;;
53642;SDS011;39546;45.534;12.048;2022-09-29T10:53:37;5.62;;;2.67;;
53642;SDS011;39546;45.534;12.048;2022-09-29T10:59:45;5.05;;;2.22;;
53642;SDS011;39546;45.534;12.048;2022-09-29T11:06:07;12.43;;;3.17;;
53642;SDS011;39546;45.534;12.048;2022-09-29T11:12:23;2.80;;;1.77;;
53642;SDS011;39546;45.534;12.048;2022-09-29T11:18:28;4.53;;;2.62;;
53642;SDS011;39546;45.534;12.048;2022-09-29T11:31:19;8.55;;;2.47;;
53642;SDS011;39546;45.534;12.048;2022-09-29T11:43:52;5.60;;;2.45;;
53642;SDS011;39546;45.534;12.048;2022-09-29T11:56:27;4.68;;;2.53;;
53642;SDS011;39546;45.534;12.048;2022-09-29T12:15:16;4.43;;;2.50;;
53642;SDS011;39546;45.534;12.048;2022-09-29T12:21:37;3.62;;;1.98;;
53642;SDS011;39546;45.534;12.048;2022-09-29T12:27:43;5.80;;;2.37;;
53642;SDS011;39546;45.534;12.048;2022-09-29T12:33:49;2.92;;;1.52;;
53642;SDS011;39546;45.534;12.048;2022-09-29T12:46:45;8.90;;;3.30;;
53642;SDS011;39546;45.534;12.048;2022-09-29T12:52:56;10.25;;;3.03;;
53642;SDS011;39546;45.534;12.048;2022-09-29T13:31:26;23.90;;;2.77;;
53642;SDS011;39546;45.534;12.048;2022-09-29T13:37:41;4.85;;;2.15;;
53642;SDS011;39546;45.534;12.048;2022-09-29T13:44:05;4.07;;;1.85;;
53642;SDS011;39546;45.534;12.048;2022-09-29T14:09:35;4.35;;;1.37;;
53642;SDS011;39546;45.534;12.048;2022-09-29T14:15:43;2.33;;;1.37;;
53642;SDS011;39546;45.534;12.048;2022-09-29T14:28:33;3.50;;;1.15;;
53642;SDS011;39546;45.534;12.048;2022-09-29T14:34:43;1.92;;;1.02;;
53642;SDS011;39546;45.534;12.048;2022-09-29T14:40:55;3.00;;;1.17;;
53642;SDS011;39546;45.534;12.048;2022-09-29T15:00:16;0.90;;;0.80;;
53642;SDS011;39546;45.534;12.048;2022-09-29T15:06:21;1.05;;;0.82;;
53642;SDS011;39546;45.534;12.048;2022-09-29T15:12:29;7.30;;;2.00;;
53642;SDS011;39546;45.534;12.048;2022-09-29T15:25:01;2.28;;;1.35;;
53642;SDS011;39546;45.534;12.048;2022-09-29T15:31:17;2.97;;;1.73;;
53642;SDS011;39546;45.534;12.048;2022-09-29T15:37:26;4.10;;;2.55;;
53642;SDS011;39546;45.534;12.048;2022-09-29T15:50:17;5.35;;;2.62;;
53642;SDS011;39546;45.534;12.048;2022-09-29T15:56:23;7.90;;;2.62;;
53642;SDS011;39546;45.534;12.048;2022-09-29T16:02:27;8.80;;;4.03;;
53642;SDS011;39546;45.534;12.048;2022-09-29T16:10:02;6.30;;;3.25;;
53642;SDS011;39546;45.534;12.048;2022-09-29T16:16:10;4.70;;;2.33;;
53642;SDS011;39546;45.534;12.048;2022-09-29T16:22:15;7.82;;;3.10;;
53642;SDS011;39546;45.534;12.048;2022-09-29T16:28:25;3.95;;;2.25;;
53642;SDS011;39546;45.534;12.048;2022-09-29T16:34:29;7.40;;;2.95;;
53642;SDS011;39546;45.534;12.048;2022-09-29T16:40:45;4.10;;;2.30;;
53642;SDS011;39546;45.534;12.048;2022-09-29T16:47:16;3.65;;;2.37;;
53642;SDS011;39546;45.534;12.048;2022-09-29T16:53:44;5.95;;;1.67;;
53642;SDS011;39546;45.534;12.048;2022-09-29T16:59:51;3.65;;;2.03;;
53642;SDS011;39546;45.534;12.048;2022-09-29T17:05:58;4.30;;;2.85;;
53642;SDS011;39546;45.534;12.048;2022-09-29T17:12:03;3.22;;;2.10;;
53642;SDS011;39546;45.534;12.048;2022-09-29T17:18:07;4.35;;;2.05;;
53642;SDS011;39546;45.534;12.048;2022-09-29T17:24:54;3.42;;;1.48;;
53642;SDS011;39546;45.534;12.048;2022-09-29T17:30:56;3.08;;;2.00;;
53642;SDS011;39546;45.534;12.048;2022-09-29T17:36:59;4.25;;;1.87;;
53642;SDS011;39546;45.534;12.048;2022-09-29T17:43:02;6.32;;;2.10;;
53642;SDS011;39546;45.534;12.048;2022-09-29T17:49:13;2.50;;;1.67;;
53642;SDS011;39546;45.534;12.048;2022-09-29T17:55:34;1.30;;;1.20;;
53642;SDS011;39546;45.534;12.048;2022-09-29T18:01:38;3.15;;;1.80;;
53642;SDS011;39546;45.534;12.048;2022-09-29T18:07:55;5.10;;;2.55;;
53642;SDS011;39546;45.534;12.048;2022-09-29T18:13:57;2.33;;;1.58;;
53642;SDS011;39546;45.534;12.048;2022-09-29T18:19:59;1.50;;;1.40;;
53642;SDS011;39546;45.534;12.048;2022-09-29T18:26:12;2.67;;;1.52;;
53642;SDS011;39546;45.534;12.048;2022-09-29T18:32:15;2.22;;;1.30;;
53642;SDS011;39546;45.534;12.048;2022-09-29T18:38:19;2.62;;;1.60;;
53642;SDS011;39546;45.534;12.048;2022-09-29T18:44:21;1.65;;;1.37;;
53642;SDS011;39546;45.534;12.048;2022-09-29T18:50:28;2.25;;;1.45;;
53642;SDS011;39546;45.534;12.048;2022-09-29T18:56:35;3.03;;;2.17;;
53642;SDS011;39546;45.534;12.048;2022-09-29T19:02:38;1.40;;;1.17;;
53642;SDS011;39546;45.534;12.048;2022-09-29T19:08:41;1.75;;;1.58;;
53642;SDS011;39546;45.534;12.048;2022-09-29T19:15:17;1.08;;;1.02;;
53642;SDS011;39546;45.534;12.048;2022-09-29T19:21:20;1.12;;;1.02;;
53642;SDS011;39546;45.534;12.048;2022-09-29T19:27:23;1.12;;;1.00;;
53642;SDS011;39546;45.534;12.048;2022-09-29T19:39:54;1.20;;;1.10;;
53642;SDS011;39546;45.534;12.048;2022-09-29T19:46:04;1.62;;;1.08;;
53642;SDS011;39546;45.534;12.048;2022-09-29T19:52:27;3.72;;;0.90;;
53642;SDS011;39546;45.534;12.048;2022-09-29T19:58:31;2.37;;;1.55;;
53642;SDS011;39546;45.534;12.048;2022-09-29T20:04:34;1.48;;;1.17;;
53642;SDS011;39546;45.534;12.048;2022-09-29T20:10:36;1.20;;;1.05;;
53642;SDS011;39546;45.534;12.048;2022-09-29T20:16:53;2.05;;;1.12;;
53642;SDS011;39546;45.534;12.048;2022-09-29T20:22:57;1.12;;;1.00;;
53642;SDS011;39546;45.534;12.048;2022-09-29T20:29:01;2.37;;;1.73;;
53642;SDS011;39546;45.534;12.048;2022-09-29T20:41:31;1.73;;;1.12;;
53642;SDS011;39546;45.534;12.048;2022-09-29T20:47:51;2.87;;;1.62;;
53642;SDS011;39546;45.534;12.048;2022-09-29T20:53:56;1.27;;;1.00;;
53642;SDS011;39546;45.534;12.048;2022-09-29T20:59:58;0.93;;;0.90;;
53642;SDS011;39546;45.534;12.048;2022-09-29T21:06:01;1.30;;;1.00;;
53642;SDS011;39546;45.534;12.048;2022-09-29T21:12:03;0.82;;;0.82;;
53642;SDS011;39546;45.534;12.048;2022-09-29T21:18:05;0.85;;;0.85;;
53642;SDS011;39546;45.534;12.048;2022-09-29T21:24:07;0.45;;;0.45;;
53642;SDS011;39546;45.534;12.048;2022-09-29T21:30:09;1.62;;;1.33;;
53642;SDS011;39546;45.534;12.048;2022-09-29T21:36:12;1.73;;;1.23;;
53642;SDS011;39546;45.534;12.048;2022-09-29T21:42:15;0.80;;;0.80;;
53642;SDS011;39546;45.534;12.048;2022-09-29T21:48:18;1.00;;;0.90;;
53642;SDS011;39546;45.534;12.048;2022-09-29T21:54:21;1.00;;;0.95;;
53642;SDS011;39546;45.534;12.048;2022-09-29T22:00:25;0.70;;;0.70;;
53642;SDS011;39546;45.534;12.048;2022-09-29T22:06:33;1.20;;;1.02;;
53642;SDS011;39546;45.534;12.048;2022-09-29T22:12:35;3.45;;;1.37;;
53642;SDS011;39546;45.534;12.048;2022-09-29T22:18:39;2.30;;;1.25;;
53642;SDS011;39546;45.534;12.048;2022-09-29T22:24:42;3.95;;;1.08;;
53642;SDS011;39546;45.534;12.048;2022-09-29T22:30:44;3.20;;;0.93;;
53642;SDS011;39546;45.534;12.048;2022-09-29T22:36:46;0.90;;;0.90;;
53642;SDS011;39546;45.534;12.048;2022-09-29T22:42:48;0.80;;;0.80;;
53642;SDS011;39546;45.534;12.048;2022-09-29T22:48:50;1.30;;;1.20;;
53642;SDS011;39546;45.534;12.048;2022-09-29T22:54:52;1.30;;;0.88;;
53642;SDS011;39546;45.534;12.048;2022-09-29T23:01:00;0.80;;;0.80;;
53642;SDS011;39546;45.534;12.048;2022-09-29T23:07:07;0.80;;;0.80;;
53642;SDS011;39546;45.534;12.048;2022-09-29T23:13:10;1.10;;;0.95;;
53642;SDS011;39546;45.534;12.048;2022-09-29T23:19:12;1.20;;;1.10;;
53642;SDS011;39546;45.534;12.048;2022-09-29T23:25:14;1.35;;;0.90;;
53642;SDS011;39546;45.534;12.048;2022-09-29T23:31:16;1.10;;;0.95;;
53642;SDS011;39546;45.534;12.048;2022-09-29T23:37:18;1.37;;;0.98;;
53642;SDS011;39546;45.534;12.048;2022-09-29T23:43:20;1.08;;;1.02;;
53642;SDS011;39546;45.534;12.048;2022-09-29T23:49:23;1.27;;;1.17;;
53642;SDS011;39546;45.534;12.048;2022-09-29T23:55:27;1.52;;;1.42;;
